createdAt,value
2022-12-13T00:00:19.258Z,-6.96
2022-12-13T00:01:51.965Z,-6.94
2022-12-13T00:03:23.698Z,-7.00
2022-12-13T00:04:55.392Z,-7.12
2022-12-13T00:06:28.460Z,-7.07
2022-12-13T00:08:00.161Z,-7.02
2022-12-13T00:09:31.908Z,-6.99
2022-12-13T00:11:04.475Z,-7.01
2022-12-13T00:12:36.234Z,-7.07
2022-12-13T00:14:07.848Z,-7.00
2022-12-13T00:15:39.519Z,-7.10
2022-12-13T00:17:11.120Z,-7.14
2022-12-13T00:18:43.530Z,-7.15
2022-12-13T00:20:15.135Z,-7.14
2022-12-13T00:21:48.123Z,-7.04
2022-12-13T00:23:19.761Z,-7.12
2022-12-13T00:24:54.017Z,-7.15
2022-12-13T00:26:26.469Z,-7.18
2022-12-13T00:27:58.107Z,-7.01
2022-12-13T00:29:29.740Z,-7.23
2022-12-13T00:31:13.785Z,-7.27
2022-12-13T00:32:53.366Z,-7.23
2022-12-13T00:34:25.267Z,-7.27
2022-12-13T00:35:57.005Z,-7.23
2022-12-13T00:37:30.116Z,-7.12
2022-12-13T00:39:01.845Z,-7.21
2022-12-13T00:40:33.482Z,-7.18
2022-12-13T00:42:05.128Z,-7.28
2022-12-13T00:43:36.721Z,-7.28
2022-12-13T00:45:09.821Z,-7.25
2022-12-13T00:46:41.511Z,-7.31
2022-12-13T00:48:13.152Z,-7.11
2022-12-13T00:49:44.795Z,-7.26
2022-12-13T00:51:16.430Z,-7.28
2022-12-13T00:52:49.471Z,-7.39
2022-12-13T00:54:21.093Z,-7.32
2022-12-13T00:55:52.675Z,-7.25
2022-12-13T00:57:24.306Z,-7.26
2022-12-13T00:58:56.021Z,-7.14
2022-12-13T01:00:27.621Z,-7.09
2022-12-13T01:01:59.224Z,-7.01
2022-12-13T01:03:30.911Z,-7.11
2022-12-13T01:05:02.579Z,-7.34
2022-12-13T01:06:35.969Z,-7.28
2022-12-13T01:08:08.998Z,-7.17
2022-12-13T01:09:42.382Z,-7.23
2022-12-13T01:11:14.315Z,-7.11
2022-12-13T01:12:47.213Z,-7.27
2022-12-13T01:14:18.923Z,-7.16
2022-12-13T01:15:50.534Z,-7.23
2022-12-13T01:17:22.299Z,-7.24
2022-12-13T01:18:53.926Z,-7.16
2022-12-13T01:20:25.543Z,-7.30
2022-12-13T01:21:57.370Z,-7.27
2022-12-13T01:23:33.228Z,-7.26
2022-12-13T01:25:05.399Z,-7.25
2022-12-13T01:26:37.011Z,-7.23
2022-12-13T01:28:08.602Z,-7.28
2022-12-13T01:29:42.547Z,-7.33
2022-12-13T01:31:15.001Z,-7.39
2022-12-13T01:32:46.665Z,-7.42
2022-12-13T01:34:19.738Z,-7.31
2022-12-13T01:35:51.442Z,-7.24
2022-12-13T01:37:26.105Z,-7.28
2022-12-13T01:38:59.583Z,-7.26
2022-12-13T01:40:31.225Z,-7.27
2022-12-13T01:42:03.579Z,-7.30
2022-12-13T01:43:51.542Z,-7.36
2022-12-13T01:45:24.109Z,-7.29
2022-12-13T01:46:55.722Z,-7.28
2022-12-13T01:48:29.729Z,-7.29
2022-12-13T01:50:02.713Z,-7.35
2022-12-13T01:51:36.687Z,-7.21
2022-12-13T01:53:08.332Z,-7.32
2022-12-13T01:54:46.681Z,-7.31
2022-12-13T01:56:19.782Z,-7.32
2022-12-13T01:57:51.520Z,-7.31
2022-12-13T01:59:23.227Z,-7.30
2022-12-13T02:00:54.889Z,-7.32
2022-12-13T02:02:26.680Z,-7.29
2022-12-13T02:03:58.406Z,-7.30
2022-12-13T02:05:32.845Z,-7.24
2022-12-13T02:07:04.509Z,-7.27
2022-12-13T02:08:36.336Z,-7.34
2022-12-13T02:10:09.781Z,-7.32
2022-12-13T02:11:41.949Z,-7.45
2022-12-13T02:13:13.551Z,-7.39
2022-12-13T02:14:45.178Z,-7.46
2022-12-13T02:16:22.093Z,-7.31
2022-12-13T02:18:12.529Z,-7.46
2022-12-13T02:19:58.742Z,-7.43
2022-12-13T02:21:33.058Z,-7.35
2022-12-13T02:23:33.748Z,-7.39
2022-12-13T02:25:17.330Z,-7.38
2022-12-13T02:27:08.813Z,-7.38
2022-12-13T02:28:49.246Z,-7.33
2022-12-13T02:30:26.977Z,-7.28
2022-12-13T02:32:00.846Z,-7.29
2022-12-13T02:33:40.234Z,-7.15
2022-12-13T02:35:13.990Z,-7.22
2022-12-13T02:36:50.288Z,-7.23
2022-12-13T02:38:25.431Z,-7.25
2022-12-13T02:39:58.515Z,-7.38
2022-12-13T02:41:36.226Z,-7.43
2022-12-13T02:43:09.284Z,-7.41
2022-12-13T02:44:43.086Z,-7.35
2022-12-13T02:46:17.193Z,-7.35
2022-12-13T02:47:48.882Z,-7.40
2022-12-13T02:49:20.842Z,-7.42
2022-12-13T02:50:52.561Z,-7.46
2022-12-13T02:52:25.490Z,-7.42
2022-12-13T02:53:57.196Z,-7.52
2022-12-13T02:55:29.080Z,-7.39
2022-12-13T02:57:00.834Z,-7.36
2022-12-13T02:58:34.457Z,-7.47
2022-12-13T03:00:08.124Z,-7.35
2022-12-13T03:01:49.685Z,-7.32
2022-12-13T03:03:26.035Z,-7.28
2022-12-13T03:05:19.666Z,-7.28
2022-12-13T03:06:56.212Z,-7.18
2022-12-13T03:08:30.856Z,-7.32
2022-12-13T03:10:05.363Z,-7.30
2022-12-13T03:12:08.071Z,-7.28
2022-12-13T03:13:46.626Z,-7.28
2022-12-13T03:15:20.421Z,-7.32
2022-12-13T03:16:53.403Z,-7.33
2022-12-13T03:18:26.319Z,-7.35
2022-12-13T03:19:57.949Z,-7.39
2022-12-13T03:21:29.604Z,-7.34
2022-12-13T03:23:01.242Z,-7.34
2022-12-13T03:24:32.869Z,-7.21
2022-12-13T03:26:06.368Z,-7.39
2022-12-13T03:27:37.957Z,-7.37
2022-12-13T03:29:09.555Z,-7.27
2022-12-13T03:30:41.198Z,-7.34
2022-12-13T03:32:14.166Z,-7.39
2022-12-13T03:33:45.974Z,-7.44
2022-12-13T03:35:21.925Z,-7.38
2022-12-13T03:36:54.222Z,-7.47
2022-12-13T03:38:25.849Z,-7.53
2022-12-13T03:39:57.486Z,-7.46
2022-12-13T03:41:31.719Z,-7.53
2022-12-13T03:43:03.332Z,-7.47
2022-12-13T03:44:34.938Z,-7.43
2022-12-13T03:46:06.656Z,-7.32
2022-12-13T03:47:39.708Z,-7.45
2022-12-13T03:49:15.346Z,-7.57
2022-12-13T03:50:49.052Z,-7.57
2022-12-13T03:52:20.844Z,-7.49
2022-12-13T03:53:52.458Z,-7.49
2022-12-13T03:55:24.098Z,-7.52
2022-12-13T03:56:55.723Z,-7.50
2022-12-13T03:58:27.355Z,-7.50
2022-12-13T04:00:10.622Z,-7.45
2022-12-13T04:01:42.263Z,-7.38
2022-12-13T04:03:15.405Z,-7.48
2022-12-13T04:04:47.067Z,-7.66
2022-12-13T04:06:22.232Z,-7.62
2022-12-13T04:08:00.780Z,-7.69
2022-12-13T04:09:32.716Z,-7.62
2022-12-13T04:11:24.627Z,-7.70
2022-12-13T04:13:14.726Z,-7.63
2022-12-13T04:14:46.335Z,-7.67
2022-12-13T04:16:18.071Z,-7.79
2022-12-13T04:17:51.073Z,-7.72
2022-12-13T04:19:24.418Z,-7.78
2022-12-13T04:20:57.364Z,-7.81
2022-12-13T04:22:29.167Z,-7.76
2022-12-13T04:24:01.296Z,-7.75
2022-12-13T04:25:33.106Z,-7.82
2022-12-13T04:27:04.730Z,-7.67
2022-12-13T04:28:36.353Z,-7.59
2022-12-13T04:30:09.018Z,-7.72
2022-12-13T04:31:40.792Z,-7.77
2022-12-13T04:33:12.527Z,-7.79
2022-12-13T04:34:45.499Z,-7.77
2022-12-13T04:36:31.137Z,-7.85
2022-12-13T04:38:04.350Z,-7.95
2022-12-13T04:39:36.005Z,-7.77
2022-12-13T04:41:08.127Z,-7.74
2022-12-13T04:42:39.750Z,-7.82
2022-12-13T04:44:28.325Z,-7.78
2022-12-13T04:46:01.564Z,-7.87
2022-12-13T04:47:33.224Z,-7.76
2022-12-13T04:49:04.834Z,-7.79
2022-12-13T04:50:37.928Z,-7.78
2022-12-13T04:52:10.059Z,-8.01
2022-12-13T04:53:41.738Z,-7.82
2022-12-13T04:55:13.663Z,-7.70
2022-12-13T04:56:45.576Z,-7.95
2022-12-13T04:58:21.356Z,-7.97
2022-12-13T04:59:54.681Z,-7.96
2022-12-13T05:01:26.322Z,-7.90
2022-12-13T05:02:58.056Z,-7.86
2022-12-13T05:04:32.920Z,-7.80
2022-12-13T05:06:07.494Z,-7.83
2022-12-13T05:07:59.186Z,-7.90
2022-12-13T05:09:30.879Z,-7.87
2022-12-13T05:11:02.502Z,-7.73
2022-12-13T05:12:34.171Z,-7.89
2022-12-13T05:14:05.830Z,-8.05
2022-12-13T05:15:37.459Z,-8.00
2022-12-13T05:17:09.127Z,-7.92
2022-12-13T05:18:40.952Z,-7.89
2022-12-13T05:20:12.611Z,-7.82
2022-12-13T05:21:45.786Z,-7.85
2022-12-13T05:23:22.917Z,-7.92
2022-12-13T05:24:54.764Z,-7.99
2022-12-13T05:26:26.396Z,-7.82
2022-12-13T05:27:58.096Z,-7.79
2022-12-13T05:29:29.892Z,-7.93
2022-12-13T05:31:06.771Z,-7.89
2022-12-13T05:32:55.377Z,-7.95
2022-12-13T05:34:27.068Z,-8.00
2022-12-13T05:36:01.977Z,-8.00
2022-12-13T05:37:35.244Z,-7.99
2022-12-13T05:39:06.982Z,-7.96
2022-12-13T05:40:58.649Z,-7.92
2022-12-13T05:42:30.332Z,-7.72
2022-12-13T05:44:01.984Z,-7.80
2022-12-13T05:45:33.727Z,-7.73
2022-12-13T05:47:05.487Z,-7.84
2022-12-13T05:48:37.201Z,-7.76
2022-12-13T05:50:09.153Z,-7.74
2022-12-13T05:51:40.885Z,-7.92
2022-12-13T05:53:13.966Z,-7.91
2022-12-13T05:55:02.709Z,-7.93
2022-12-13T05:56:34.330Z,-8.08
2022-12-13T05:58:06.031Z,-7.88
2022-12-13T05:59:45.065Z,-8.03
2022-12-13T06:01:17.068Z,-8.08
2022-12-13T06:02:49.126Z,-8.13
2022-12-13T06:04:22.762Z,-8.17
2022-12-13T06:05:55.101Z,-8.32
2022-12-13T06:07:26.776Z,-8.16
2022-12-13T06:09:00.352Z,-8.24
2022-12-13T06:10:34.138Z,-8.07
2022-12-13T06:12:06.943Z,-8.11
2022-12-13T06:14:00.767Z,-8.12
2022-12-13T06:15:34.874Z,-8.21
2022-12-13T06:17:09.802Z,-8.33
2022-12-13T06:18:44.376Z,-8.16
2022-12-13T06:20:23.927Z,-8.13
2022-12-13T06:21:56.380Z,-8.02
2022-12-13T06:23:28.059Z,-8.16
2022-12-13T06:25:01.799Z,-8.16
2022-12-13T06:26:36.501Z,-8.16
2022-12-13T06:28:08.254Z,-8.16
2022-12-13T06:29:40.251Z,-8.15
2022-12-13T06:31:12.208Z,-8.28
2022-12-13T06:32:44.144Z,-8.40
2022-12-13T06:34:15.873Z,-8.22
2022-12-13T06:35:47.624Z,-8.16
2022-12-13T06:37:19.341Z,-8.09
2022-12-13T06:38:52.178Z,-8.13
2022-12-13T06:40:25.337Z,-8.34
2022-12-13T06:41:56.953Z,-8.15
2022-12-13T06:43:28.713Z,-8.08
2022-12-13T06:45:00.341Z,-8.23
2022-12-13T06:46:32.391Z,-8.21
2022-12-13T06:48:04.295Z,-8.35
2022-12-13T06:49:36.229Z,-8.22
2022-12-13T06:51:08.258Z,-8.16
2022-12-13T06:52:39.906Z,-8.35
2022-12-13T06:54:11.513Z,-8.10
2022-12-13T06:55:44.757Z,-8.09
2022-12-13T06:57:16.537Z,-8.28
2022-12-13T06:59:01.437Z,-8.26
2022-12-13T07:00:38.214Z,-8.11
2022-12-13T07:02:24.177Z,-8.01
2022-12-13T07:03:57.810Z,-8.06
2022-12-13T07:05:29.549Z,-7.92
2022-12-13T07:07:02.635Z,-8.04
2022-12-13T07:08:37.811Z,-8.02
2022-12-13T07:10:12.670Z,-8.04
2022-12-13T07:11:56.986Z,-7.96
2022-12-13T07:13:28.756Z,-7.96
2022-12-13T07:15:00.457Z,-8.07
2022-12-13T07:16:32.172Z,-8.00
2022-12-13T07:18:04.221Z,-8.18
2022-12-13T07:19:36.143Z,-8.26
2022-12-13T07:21:08.230Z,-8.29
2022-12-13T07:22:46.594Z,-8.04
2022-12-13T07:24:19.330Z,-8.05
2022-12-13T07:25:51.787Z,-8.12
2022-12-13T07:27:24.815Z,-8.10
2022-12-13T07:28:56.558Z,-8.19
2022-12-13T07:30:28.274Z,-8.09
2022-12-13T07:32:01.342Z,-7.94
2022-12-13T07:33:33.953Z,-7.85
2022-12-13T07:35:05.835Z,-7.92
2022-12-13T07:36:37.453Z,-8.07
2022-12-13T07:38:09.743Z,-8.06
2022-12-13T07:39:41.525Z,-8.10
2022-12-13T07:41:13.215Z,-8.20
2022-12-13T07:42:56.505Z,-8.13
2022-12-13T07:44:28.147Z,-7.91
2022-12-13T07:45:59.944Z,-7.77
2022-12-13T07:47:31.744Z,-7.91
2022-12-13T07:49:03.938Z,-7.94
2022-12-13T07:50:37.227Z,-7.79
2022-12-13T07:52:11.426Z,-7.98
2022-12-13T07:53:43.107Z,-7.96
2022-12-13T07:55:15.002Z,-7.93
2022-12-13T07:56:46.767Z,-7.90
2022-12-13T07:58:19.895Z,-7.74
2022-12-13T07:59:51.532Z,-7.69
2022-12-13T08:01:23.239Z,-7.60
2022-12-13T08:02:55.087Z,-7.46
2022-12-13T08:04:26.827Z,-7.44
2022-12-13T08:05:59.585Z,-7.48
2022-12-13T08:07:31.281Z,-7.60
2022-12-13T08:09:03.499Z,-7.60
2022-12-13T08:10:35.218Z,-7.80
2022-12-13T08:12:07.070Z,-7.66
2022-12-13T08:13:40.904Z,-7.47
2022-12-13T08:15:14.346Z,-7.47
2022-12-13T08:16:46.253Z,-7.31
2022-12-13T08:18:17.890Z,-7.42
2022-12-13T08:19:49.638Z,-7.45
2022-12-13T08:21:52.504Z,-7.47
2022-12-13T08:23:13.071Z,-7.36
2022-12-13T08:24:44.800Z,-7.49
2022-12-13T08:26:16.442Z,-7.50
2022-12-13T08:27:48.087Z,-7.57
2022-12-13T08:29:23.096Z,-7.56
2022-12-13T08:31:05.406Z,-7.46
2022-12-13T08:32:37.291Z,-7.59
2022-12-13T08:34:09.447Z,-7.48
2022-12-13T08:35:41.091Z,-7.47
2022-12-13T08:37:13.003Z,-7.36
2022-12-13T08:38:44.699Z,-7.35
2022-12-13T08:40:16.519Z,-7.44
2022-12-13T08:41:48.215Z,-7.35
2022-12-13T08:43:20.005Z,-7.29
2022-12-13T08:44:58.397Z,-7.23
2022-12-13T08:46:30.122Z,-7.32
2022-12-13T08:48:01.961Z,-7.26
2022-12-13T08:49:33.740Z,-7.24
2022-12-13T08:51:06.681Z,-7.17
2022-12-13T08:52:39.771Z,-6.99
2022-12-13T08:54:13.306Z,-7.15
2022-12-13T08:56:03.179Z,-6.92
2022-12-13T08:57:35.738Z,-6.88
2022-12-13T08:59:07.380Z,-6.99
2022-12-13T09:00:42.497Z,-7.03
2022-12-13T09:02:14.519Z,-6.89
2022-12-13T09:03:46.270Z,-6.95
2022-12-13T09:05:33.044Z,-6.97
2022-12-13T09:07:06.362Z,-6.79
2022-12-13T09:08:38.206Z,-6.90
2022-12-13T09:10:27.119Z,-6.72
2022-12-13T09:12:00.153Z,-6.68
2022-12-13T09:13:33.505Z,-6.74
2022-12-13T09:15:06.008Z,-6.69
2022-12-13T09:16:55.824Z,-6.60
2022-12-13T09:18:36.669Z,-6.62
2022-12-13T09:20:29.838Z,-6.72
2022-12-13T09:22:02.634Z,-6.77
2022-12-13T09:23:35.429Z,-6.78
2022-12-13T09:25:08.018Z,-6.68
2022-12-13T09:26:46.645Z,-6.55
2022-12-13T09:28:18.350Z,-6.60
2022-12-13T09:29:50.036Z,-6.53
2022-12-13T09:31:21.784Z,-6.66
2022-12-13T09:32:55.714Z,-6.66
2022-12-13T09:34:27.674Z,-6.43
2022-12-13T09:36:01.470Z,-6.31
2022-12-13T09:37:33.584Z,-6.27
2022-12-13T09:39:05.453Z,-6.14
2022-12-13T09:40:38.251Z,-6.15
2022-12-13T09:42:10.820Z,-6.03
2022-12-13T09:43:43.972Z,-6.24
2022-12-13T09:45:22.666Z,-6.11
2022-12-13T09:46:54.833Z,-5.94
2022-12-13T09:48:34.770Z,-5.90
2022-12-13T09:50:08.290Z,-5.92
2022-12-13T09:51:55.305Z,-5.87
2022-12-13T09:53:41.117Z,-5.91
2022-12-13T09:55:19.752Z,-5.97
2022-12-13T09:56:53.886Z,-5.83
2022-12-13T09:58:27.880Z,-5.64
2022-12-13T10:00:01.841Z,-5.65
2022-12-13T10:01:33.980Z,-5.74
2022-12-13T10:03:05.843Z,-5.64
2022-12-13T10:04:38.880Z,-5.81
2022-12-13T10:06:13.798Z,-5.79
2022-12-13T10:07:46.151Z,-5.78
2022-12-13T10:09:18.793Z,-5.69
2022-12-13T10:10:50.616Z,-5.60
2022-12-13T10:12:22.291Z,-5.64
2022-12-13T10:13:55.060Z,-5.59
2022-12-13T10:15:26.725Z,-5.42
2022-12-13T10:17:00.214Z,-5.50
2022-12-13T10:18:34.428Z,-5.66
2022-12-13T10:20:12.769Z,-5.64
2022-12-13T10:21:44.820Z,-5.53
2022-12-13T10:23:38.618Z,-5.32
2022-12-13T10:25:08.279Z,-5.39
2022-12-13T10:26:40.016Z,-5.41
2022-12-13T10:28:11.801Z,-5.32
2022-12-13T10:30:06.059Z,-5.16
2022-12-13T10:31:41.377Z,-5.20
2022-12-13T10:33:24.253Z,-5.25
2022-12-13T10:34:56.515Z,-5.22
2022-12-13T10:36:33.625Z,-5.39
2022-12-13T10:38:32.008Z,-5.55
2022-12-13T10:40:04.644Z,-5.34
2022-12-13T10:41:36.870Z,-5.19
2022-12-13T10:43:11.985Z,-5.13
2022-12-13T10:44:43.919Z,-5.14
2022-12-13T10:46:18.334Z,-5.12
2022-12-13T10:48:00.809Z,-5.10
2022-12-13T10:49:39.156Z,-5.21
2022-12-13T10:51:11.972Z,-5.16
2022-12-13T10:52:47.365Z,-5.13
2022-12-13T10:54:25.691Z,-5.19
2022-12-13T10:56:02.028Z,-5.11
2022-12-13T10:57:34.269Z,-5.11
2022-12-13T10:59:16.555Z,-5.02
2022-12-13T11:00:49.567Z,-4.99
2022-12-13T11:02:34.826Z,-4.99
2022-12-13T11:04:25.379Z,-4.94
2022-12-13T11:06:05.517Z,-4.89
2022-12-13T11:07:37.460Z,-5.01
2022-12-13T11:09:23.000Z,-4.96
2022-12-13T11:10:58.973Z,-4.97
2022-12-13T11:12:30.586Z,-4.88
2022-12-13T11:14:03.636Z,-4.77
2022-12-13T11:15:37.232Z,-4.85
2022-12-13T11:17:10.091Z,-4.76
2022-12-13T11:18:41.817Z,-4.82
2022-12-13T11:20:16.624Z,-4.89
2022-12-13T11:21:49.335Z,-5.10
2022-12-13T11:23:25.504Z,-5.05
2022-12-13T11:25:00.410Z,-4.87
2022-12-13T11:26:33.452Z,-4.94
2022-12-13T11:28:26.330Z,-5.02
2022-12-13T11:30:18.294Z,-4.90
2022-12-13T11:31:55.640Z,-4.77
2022-12-13T11:33:29.778Z,-4.67
2022-12-13T11:35:03.911Z,-4.54
2022-12-13T11:36:40.715Z,-4.67
2022-12-13T11:38:17.728Z,-4.91
2022-12-13T11:39:50.737Z,-4.85
2022-12-13T11:41:31.281Z,-4.75
2022-12-13T11:43:06.094Z,-4.72
2022-12-13T11:44:47.786Z,-4.83
2022-12-13T11:46:22.308Z,-4.86
2022-12-13T11:47:58.691Z,-4.89
2022-12-13T11:49:38.064Z,-5.06
2022-12-13T11:51:11.269Z,-4.72
2022-12-13T11:52:46.519Z,-4.62
2022-12-13T11:54:24.213Z,-4.77
2022-12-13T11:55:57.878Z,-4.70
2022-12-13T11:57:44.293Z,-4.47
2022-12-13T11:59:26.873Z,-4.40
2022-12-13T12:01:01.628Z,-4.47
2022-12-13T12:02:34.341Z,-4.64
2022-12-13T12:04:12.077Z,-4.66
2022-12-13T12:05:47.266Z,-4.45
2022-12-13T12:07:36.449Z,-4.53
2022-12-13T12:09:11.953Z,-4.42
2022-12-13T12:10:49.694Z,-4.23
2022-12-13T12:12:25.059Z,-4.26
2022-12-13T12:14:00.741Z,-4.32
2022-12-13T12:15:33.538Z,-4.31
2022-12-13T12:17:14.348Z,-4.13
2022-12-13T12:18:46.249Z,-4.30
2022-12-13T12:20:23.243Z,-4.47
2022-12-13T12:22:15.428Z,-4.34
2022-12-13T12:23:56.879Z,-4.22
2022-12-13T12:25:31.315Z,-4.20
2022-12-13T12:27:12.631Z,-4.16
2022-12-13T12:28:56.187Z,-4.06
2022-12-13T12:30:40.801Z,-4.24
2022-12-13T12:32:17.001Z,-4.08
2022-12-13T12:33:52.440Z,-4.27
2022-12-13T12:35:46.363Z,-4.36
2022-12-13T12:37:21.197Z,-4.33
2022-12-13T12:39:20.769Z,-4.08
2022-12-13T12:41:20.439Z,-4.22
2022-12-13T12:43:13.951Z,-4.12
2022-12-13T12:44:51.280Z,-4.17
2022-12-13T12:49:02.186Z,-4.06
2022-12-13T12:50:38.279Z,-4.09
2022-12-13T12:52:17.674Z,-4.17
2022-12-13T12:53:52.200Z,-4.22
2022-12-13T12:55:30.760Z,-4.14
2022-12-13T12:57:05.007Z,-4.30
2022-12-13T12:58:39.440Z,-4.27
2022-12-13T13:00:12.419Z,-4.26
2022-12-13T13:01:51.953Z,-4.23
2022-12-13T13:03:24.630Z,-4.18
2022-12-13T13:04:58.038Z,-4.31
2022-12-13T13:06:31.094Z,-4.29
2022-12-13T13:08:09.775Z,-4.13
2022-12-13T13:09:41.622Z,-4.22
2022-12-13T13:11:25.163Z,-4.18
2022-12-13T13:13:12.693Z,-4.28
2022-12-13T13:14:44.909Z,-4.16
2022-12-13T13:16:30.691Z,-4.28
2022-12-13T13:18:03.845Z,-4.25
2022-12-13T13:19:46.292Z,-4.21
2022-12-13T13:21:47.713Z,-4.24
2022-12-13T13:23:38.828Z,-4.27
2022-12-13T13:25:22.014Z,-4.52
2022-12-13T13:26:54.910Z,-4.43
2022-12-13T13:28:27.019Z,-4.36
2022-12-13T13:30:05.320Z,-4.37
2022-12-13T13:32:00.930Z,-4.30
2022-12-13T13:33:45.123Z,-4.39
2022-12-13T13:35:50.347Z,-4.21
2022-12-13T13:37:44.464Z,-4.26
2022-12-13T13:39:16.453Z,-4.34
2022-12-13T13:40:48.840Z,-4.33
2022-12-13T13:42:20.851Z,-4.23
2022-12-13T13:43:52.480Z,-4.22
2022-12-13T13:45:24.647Z,-4.31
2022-12-13T13:47:29.853Z,-4.19
2022-12-13T13:49:04.495Z,-4.40
2022-12-13T13:50:59.288Z,-4.38
2022-12-13T13:52:34.393Z,-4.39
2022-12-13T13:54:38.360Z,-4.19
2022-12-13T13:56:19.752Z,-4.17
2022-12-13T13:58:10.414Z,-4.16
2022-12-13T14:00:10.128Z,-4.18
2022-12-13T14:02:01.062Z,-4.21
2022-12-13T14:04:11.405Z,-4.20
2022-12-13T14:06:22.138Z,-4.07
2022-12-13T14:08:20.349Z,-4.12
2022-12-13T14:10:04.417Z,-4.25
2022-12-13T14:12:23.718Z,-4.23
2022-12-13T14:14:21.790Z,-4.40
2022-12-13T14:16:45.859Z,-4.33
2022-12-13T14:18:51.649Z,-4.17
2022-12-13T14:20:44.307Z,-4.21
2022-12-13T14:22:21.443Z,-4.25
2022-12-13T14:24:00.987Z,-4.15
2022-12-13T14:25:52.484Z,-4.33
2022-12-13T14:27:35.528Z,-4.26
2022-12-13T14:29:11.544Z,-4.27
2022-12-13T14:30:43.260Z,-4.24
2022-12-13T14:32:29.143Z,-4.25
2022-12-13T14:34:00.906Z,-4.16
2022-12-13T14:35:32.786Z,-4.13
2022-12-13T14:37:06.673Z,-4.17
2022-12-13T14:38:41.296Z,-4.21
2022-12-13T14:40:25.796Z,-4.11
2022-12-13T14:41:58.850Z,-4.16
2022-12-13T14:43:31.139Z,-4.29
2022-12-13T14:45:14.195Z,-4.29
2022-12-13T14:46:52.705Z,-4.22
2022-12-13T14:48:28.887Z,-4.26
2022-12-13T14:50:01.603Z,-4.28
2022-12-13T14:51:34.518Z,-4.34
2022-12-13T14:53:07.711Z,-4.35
2022-12-13T14:54:41.366Z,-4.48
2022-12-13T14:56:27.814Z,-4.28
2022-12-13T14:58:01.910Z,-4.11
2022-12-13T14:59:33.762Z,-4.11
2022-12-13T15:01:08.846Z,-4.21
2022-12-13T15:02:49.808Z,-4.27
2022-12-13T15:04:29.577Z,-4.33
2022-12-13T15:06:01.731Z,-4.29
2022-12-13T15:07:35.967Z,-4.39
2022-12-13T15:09:12.196Z,-4.21
2022-12-13T15:10:48.434Z,-4.24
2022-12-13T15:12:24.455Z,-4.39
2022-12-13T15:13:57.447Z,-4.36
2022-12-13T15:15:30.252Z,-4.24
2022-12-13T15:17:02.110Z,-4.53
2022-12-13T15:18:34.737Z,-4.51
2022-12-13T15:20:23.832Z,-4.40
2022-12-13T15:22:01.722Z,-4.44
2022-12-13T15:23:34.906Z,-4.36
2022-12-13T15:25:12.384Z,-4.43
2022-12-13T15:26:45.271Z,-4.48
2022-12-13T15:28:21.590Z,-4.51
2022-12-13T15:29:54.419Z,-4.46
2022-12-13T15:31:26.369Z,-4.50
2022-12-13T15:33:05.805Z,-4.34
2022-12-13T15:34:37.588Z,-4.40
2022-12-13T15:36:10.329Z,-4.54
2022-12-13T15:37:42.050Z,-4.46
2022-12-13T15:39:18.120Z,-4.61
2022-12-13T15:40:51.716Z,-4.45
2022-12-13T15:42:33.842Z,-4.51
2022-12-13T15:44:06.433Z,-4.44
2022-12-13T15:45:38.203Z,-4.50
2022-12-13T15:47:12.373Z,-4.56
2022-12-13T15:49:01.123Z,-4.59
2022-12-13T15:50:35.146Z,-4.59
2022-12-13T15:52:19.356Z,-4.51
2022-12-13T15:54:02.050Z,-4.53
2022-12-13T15:55:34.905Z,-4.56
2022-12-13T15:57:16.253Z,-4.73
2022-12-13T15:58:53.061Z,-4.65
2022-12-13T16:00:31.085Z,-4.55
2022-12-13T16:02:03.967Z,-4.64
2022-12-13T16:03:40.828Z,-4.67
2022-12-13T16:05:22.998Z,-4.82
2022-12-13T16:06:55.782Z,-4.69
2022-12-13T16:08:28.363Z,-4.76
2022-12-13T16:10:00.090Z,-4.84
2022-12-13T16:11:36.161Z,-4.82
2022-12-13T16:13:26.243Z,-4.87
2022-12-13T16:15:09.830Z,-4.69
2022-12-13T16:16:41.761Z,-4.72
2022-12-13T16:18:16.442Z,-4.72
2022-12-13T16:19:48.206Z,-4.68
2022-12-13T16:21:21.379Z,-4.65
2022-12-13T16:22:53.812Z,-4.84
2022-12-13T16:24:31.821Z,-4.71
2022-12-13T16:26:08.770Z,-4.78
2022-12-13T16:27:41.225Z,-4.82
2022-12-13T16:29:18.482Z,-4.76
2022-12-13T16:31:09.460Z,-4.74
2022-12-13T16:33:10.894Z,-4.81
2022-12-13T16:34:33.317Z,-4.83
2022-12-13T16:36:05.348Z,-4.71
2022-12-13T16:37:37.109Z,-4.61
2022-12-13T16:39:10.235Z,-4.55
2022-12-13T16:40:42.226Z,-4.63
2022-12-13T16:42:16.635Z,-4.55
2022-12-13T16:44:00.729Z,-4.50
2022-12-13T16:45:57.253Z,-4.61
2022-12-13T16:47:41.705Z,-4.61
2022-12-13T16:49:22.788Z,-4.56
2022-12-13T16:50:57.791Z,-4.64
2022-12-13T16:52:29.957Z,-4.72
2022-12-13T16:54:01.906Z,-4.58
2022-12-13T16:55:33.901Z,-4.54
2022-12-13T16:57:09.399Z,-4.66
2022-12-13T16:58:46.048Z,-4.71
2022-12-13T17:00:23.825Z,-4.65
2022-12-13T17:02:02.959Z,-4.67
2022-12-13T17:03:34.823Z,-4.55
2022-12-13T17:05:07.186Z,-4.60
2022-12-13T17:06:39.048Z,-4.61
2022-12-13T17:08:11.057Z,-4.56
2022-12-13T17:09:42.759Z,-4.66
2022-12-13T17:11:17.976Z,-4.65
2022-12-13T17:13:03.276Z,-4.66
2022-12-13T17:14:35.006Z,-4.66
2022-12-13T17:16:07.662Z,-4.72
2022-12-13T17:17:41.751Z,-4.69
2022-12-13T17:19:15.693Z,-4.84
2022-12-13T17:20:58.016Z,-4.87
2022-12-13T17:22:30.693Z,-4.88
2022-12-13T17:24:03.135Z,-4.73
2022-12-13T17:25:38.790Z,-4.78
2022-12-13T17:27:10.507Z,-4.77
2022-12-13T17:28:46.877Z,-4.74
2022-12-13T17:30:18.733Z,-4.79
2022-12-13T17:31:50.435Z,-4.84
2022-12-13T17:33:24.104Z,-4.81
2022-12-13T17:34:56.129Z,-4.76
2022-12-13T17:36:27.903Z,-4.72
2022-12-13T17:37:59.582Z,-4.68
2022-12-13T17:39:31.537Z,-4.65
2022-12-13T17:41:03.494Z,-4.68
2022-12-13T17:42:35.232Z,-4.71
2022-12-13T17:44:07.064Z,-4.67
2022-12-13T17:45:39.051Z,-4.70
2022-12-13T17:47:10.794Z,-4.81
2022-12-13T17:48:45.508Z,-4.74
2022-12-13T17:50:17.451Z,-4.71
2022-12-13T17:51:51.358Z,-4.71
2022-12-13T17:53:23.764Z,-4.70
2022-12-13T17:54:55.747Z,-4.72
2022-12-13T17:56:27.394Z,-4.65
2022-12-13T17:58:04.252Z,-4.74
2022-12-13T17:59:42.922Z,-4.76
2022-12-13T18:01:16.039Z,-4.61
2022-12-13T18:02:55.416Z,-4.57
2022-12-13T18:04:29.153Z,-4.71
2022-12-13T18:06:01.794Z,-4.70
2022-12-13T18:07:57.281Z,-4.69
2022-12-13T18:09:29.018Z,-4.69
2022-12-13T18:11:32.489Z,-4.62
2022-12-13T18:12:52.444Z,-4.64
2022-12-13T18:14:24.930Z,-4.70
2022-12-13T18:15:56.748Z,-4.73
2022-12-13T18:17:46.615Z,-4.71
2022-12-13T18:19:20.192Z,-4.79
2022-12-13T18:20:53.356Z,-4.73
2022-12-13T18:22:25.260Z,-4.70
2022-12-13T18:23:56.988Z,-4.77
2022-12-13T18:25:29.396Z,-4.83
2022-12-13T18:27:06.251Z,-4.71
2022-12-13T18:28:38.256Z,-4.71
2022-12-13T18:30:11.143Z,-4.64
2022-12-13T18:31:42.872Z,-4.64
2022-12-13T18:33:14.579Z,-4.54
2022-12-13T18:34:46.255Z,-4.55
2022-12-13T18:36:20.061Z,-4.47
2022-12-13T18:37:52.207Z,-4.45
2022-12-13T18:39:23.853Z,-4.66
2022-12-13T18:40:58.133Z,-4.54
2022-12-13T18:42:30.670Z,-4.58
2022-12-13T18:44:03.305Z,-4.61
2022-12-13T18:45:35.765Z,-4.63
2022-12-13T18:47:07.502Z,-4.59
2022-12-13T18:48:39.286Z,-4.62
2022-12-13T18:50:13.710Z,-4.56
2022-12-13T18:51:46.837Z,-4.64
2022-12-13T18:53:18.723Z,-4.63
2022-12-13T18:54:54.394Z,-4.62
2022-12-13T18:56:26.629Z,-4.50
2022-12-13T18:57:58.364Z,-4.45
2022-12-13T18:59:30.233Z,-4.51
2022-12-13T19:01:03.021Z,-4.59
2022-12-13T19:02:35.276Z,-4.61
2022-12-13T19:04:07.264Z,-4.57
2022-12-13T19:05:39.197Z,-4.45
2022-12-13T19:07:12.433Z,-4.47
2022-12-13T19:08:46.685Z,-4.44
2022-12-13T19:10:18.732Z,-4.36
2022-12-13T19:11:50.406Z,-4.44
2022-12-13T19:13:23.939Z,-4.46
2022-12-13T19:14:55.820Z,-4.54
2022-12-13T19:16:27.725Z,-4.44
2022-12-13T19:17:59.480Z,-4.48
2022-12-13T19:19:31.150Z,-4.40
2022-12-13T19:21:02.901Z,-4.40
2022-12-13T19:22:36.225Z,-4.35
2022-12-13T19:24:10.944Z,-4.37
2022-12-13T19:25:42.969Z,-4.49
2022-12-13T19:27:14.675Z,-4.51
2022-12-13T19:28:46.696Z,-4.41
2022-12-13T19:30:22.982Z,-4.40
2022-12-13T19:31:54.935Z,-4.28
2022-12-13T19:33:27.370Z,-4.42
2022-12-13T19:34:59.280Z,-4.43
2022-12-13T19:36:31.383Z,-4.45
2022-12-13T19:38:04.454Z,-4.46
2022-12-13T19:39:36.202Z,-4.59
2022-12-13T19:41:09.286Z,-4.68
2022-12-13T19:42:40.949Z,-4.65
2022-12-13T19:44:12.638Z,-4.65
2022-12-13T19:45:44.982Z,-4.54
2022-12-13T19:47:16.754Z,-4.59
2022-12-13T19:48:48.458Z,-4.55
2022-12-13T19:50:20.357Z,-4.68
2022-12-13T19:51:52.156Z,-4.58
2022-12-13T19:53:25.530Z,-4.60
2022-12-13T19:54:57.396Z,-4.62
2022-12-13T19:56:29.135Z,-4.64
2022-12-13T19:58:04.506Z,-4.60
2022-12-13T19:59:37.483Z,-4.72
2022-12-13T20:01:09.256Z,-4.64
2022-12-13T20:02:42.248Z,-4.64
2022-12-13T20:04:16.413Z,-4.61
2022-12-13T20:05:56.587Z,-4.57
2022-12-13T20:07:28.275Z,-4.62
2022-12-13T20:09:01.552Z,-4.70
2022-12-13T20:10:33.573Z,-4.65
2022-12-13T20:12:06.033Z,-4.62
2022-12-13T20:13:37.738Z,-4.59
2022-12-13T20:15:10.182Z,-4.59
2022-12-13T20:16:42.739Z,-4.48
2022-12-13T20:18:14.599Z,-4.52
2022-12-13T20:19:46.244Z,-4.68
2022-12-13T20:21:19.943Z,-4.64
2022-12-13T20:22:51.727Z,-4.44
2022-12-13T20:24:26.115Z,-4.51
2022-12-13T20:26:04.874Z,-4.59
2022-12-13T20:27:45.951Z,-4.48
2022-12-13T20:29:18.615Z,-4.60
2022-12-13T20:30:50.368Z,-4.50
2022-12-13T20:32:22.100Z,-4.46
2022-12-13T20:33:55.522Z,-4.49